ěÝzenÝ letovÚho provozu ╚eskÚ republiky
Letiste: LKNA Aktualizace: 29.05.2023 15:29:39  UTC
 METAR LKNA 29.05. 15:30 ...
METAR LKNA 291530Z 33006KT 300V360 CAVOK 21/06 Q1018 NOSIG RMK BLU BLU=
 TAF LKNA 29.05. 11:00 ...
TAF LKNA 291100Z 2912/3012 01008KT CAVOK=